Time;durP1;ratioP1;P1;durP2;ratioP2;P2;SDS_P1;SDS_P2;PMS_P1;PMS_P2;Temp;Humidity;BMP_temperature;BMP_pressure;BME280_temperature;BME280_humidity;BME280_pressure;Samples;Min_cycle;Max_cycle;Signal;HPM_P1;HPM_P2
2022/06/01 00:01:34;;;;;;;;;;;24.70;41.80;;;;;;1564413;75;1951;-56
2022/06/01 00:03:37;;;;;;;;;;;24.70;41.80;;;;;;1563247;75;749;-55
2022/06/01 00:05:39;;;;;;;;;;;24.70;41.70;;;;;;1572233;75;1185;-55
2022/06/01 00:07:41;;;;;;;;;;;24.80;41.70;;;;;;1556270;75;664;-56
2022/06/01 00:09:43;;;;;;;;;;;24.70;41.80;;;;;;1555129;75;663;-56
2022/06/01 00:11:45;;;;;;;;;;;24.70;41.70;;;;;;1568941;75;1421;-57
2022/06/01 00:13:46;;;;;;;;;;;24.70;41.70;;;;;;1562410;75;628;-57
2022/06/01 00:15:48;;;;;;;;;;;24.70;41.70;;;;;;1565540;75;1142;-56
2022/06/01 00:17:50;;;;;;;;;;;24.70;41.70;;;;;;1555711;75;661;-57
2022/06/01 00:19:52;;;;;;;;;;;24.70;41.80;;;;;;1562236;75;710;-56
2022/06/01 00:22:12;;;;;;;;;;;24.70;41.70;;;;;;1561225;75;1946;-56
2022/06/01 00:24:14;;;;;;;;;;;24.70;41.80;;;;;;1553795;75;697;-57
2022/06/01 00:26:16;;;;;;;;;;;24.60;41.70;;;;;;1550999;74;1548;-56
2022/06/01 00:28:18;;;;;;;;;;;24.60;41.70;;;;;;1550908;75;703;-56
2022/06/01 00:30:20;;;;;;;;;;;24.70;41.80;;;;;;1565470;75;602;-56
2022/06/01 00:32:22;;;;;;;;;;;24.70;41.80;;;;;;1560509;75;611;-56
2022/06/01 00:34:24;;;;;;;;;;;24.60;41.70;;;;;;1504234;73;3007;-54
2022/06/01 00:36:25;;;;;;;;;;;24.60;41.80;;;;;;1502616;78;1167;-57
2022/06/01 00:38:27;;;;;;;;;;;24.60;41.70;;;;;;1502646;78;799;-58
2022/06/01 00:40:29;;;;;;;;;;;24.60;41.70;;;;;;1499537;78;1941;-58
2022/06/01 00:42:31;;;;;;;;;;;24.60;41.80;;;;;;1502244;78;681;-59
2022/06/01 00:44:33;;;;;;;;;;;24.70;41.80;;;;;;1508359;78;668;-58
2022/06/01 00:46:35;;;;;;;;;;;24.70;41.80;;;;;;1505427;78;1136;-58
2022/06/01 00:48:39;;;;;;;;;;;24.70;41.80;;;;;;1505118;78;909;-58
2022/06/01 00:50:41;;;;;;;;;;;24.60;41.60;;;;;;1467340;79;1818;-54
2022/06/01 00:52:45;;;;;;;;;;;24.70;41.70;;;;;;1503806;78;756;-59
2022/06/01 00:54:47;;;;;;;;;;;24.70;41.70;;;;;;1494895;78;1832;-57
2022/06/01 00:56:53;;;;;;;;;;;24.60;41.40;;;;;;1500289;78;1124;-58
2022/06/01 00:58:55;;;;;;;;;;;24.70;41.60;;;;;;1494958;78;1883;-58
2022/06/01 01:00:58;;;;;;;;;;;24.60;41.50;;;;;;1499482;78;1935;-56
2022/06/01 01:03:01;;;;;;;;;;;24.70;41.60;;;;;;1508239;78;711;-58
2022/06/01 01:05:03;;;;;;;;;;;24.60;41.50;;;;;;1505623;78;1163;-59
2022/06/01 01:07:07;;;;;;;;;;;24.60;41.50;;;;;;1501745;78;751;-58
2022/06/01 01:09:09;;;;;;;;;;;24.60;41.50;;;;;;1495141;78;1444;-57
2022/06/01 01:11:11;;;;;;;;;;;24.60;41.50;;;;;;1500396;78;681;-55
2022/06/01 01:13:14;;;;;;;;;;;24.60;41.50;;;;;;1496266;78;686;-55
2022/06/01 01:15:16;;;;;;;;;;;24.60;41.60;;;;;;1503284;78;1147;-57
2022/06/01 01:17:20;;;;;;;;;;;24.70;41.60;;;;;;1490526;78;691;-58
2022/06/01 01:19:35;;;;;;;;;;;24.60;41.50;;;;;;1496738;78;1686;-53
2022/06/01 01:21:46;;;;;;;;;;;24.60;41.50;;;;;;1502528;78;1935;-58
2022/06/01 01:23:56;;;;;;;;;;;24.60;41.50;;;;;;1485385;78;872;-56
2022/06/01 01:25:58;;;;;;;;;;;24.60;41.60;;;;;;1473797;78;1122;-55
2022/06/01 01:28:01;;;;;;;;;;;24.50;41.50;;;;;;1505044;78;760;-57
2022/06/01 01:30:06;;;;;;;;;;;24.50;41.50;;;;;;1504283;78;680;-58
2022/06/01 01:32:08;;;;;;;;;;;24.50;41.50;;;;;;1500996;78;1710;-58
2022/06/01 01:34:10;;;;;;;;;;;24.60;41.50;;;;;;1497647;78;760;-57
2022/06/01 01:36:12;;;;;;;;;;;24.50;41.70;;;;;;1497861;78;1483;-58
2022/06/01 01:38:15;;;;;;;;;;;24.50;41.50;;;;;;1498766;78;697;-58
2022/06/01 01:40:17;;;;;;;;;;;24.60;41.50;;;;;;1505069;78;1869;-57
2022/06/01 01:42:19;;;;;;;;;;;24.50;41.50;;;;;;1506818;78;1944;-56
2022/06/01 01:44:23;;;;;;;;;;;24.50;41.50;;;;;;1496015;78;613;-56
2022/06/01 01:46:24;;;;;;;;;;;24.50;41.60;;;;;;1504710;78;1164;-57
2022/06/01 01:48:26;;;;;;;;;;;24.50;41.60;;;;;;1506598;77;697;-58
2022/06/01 01:50:28;;;;;;;;;;;24.50;41.60;;;;;;1501105;78;1598;-58
2022/06/01 01:52:30;;;;;;;;;;;24.50;41.60;;;;;;1504397;78;677;-57
2022/06/01 01:54:34;;;;;;;;;;;24.50;41.70;;;;;;1507702;78;668;-54
2022/06/01 01:56:40;;;;;;;;;;;24.50;41.70;;;;;;1504824;78;1139;-58
2022/06/01 01:59:01;;;;;;;;;;;24.50;41.60;;;;;;1503809;78;1939;-54
2022/06/01 02:01:08;;;;;;;;;;;24.50;41.70;;;;;;1497281;78;1919;-58
2022/06/01 02:03:14;;;;;;;;;;;24.50;41.70;;;;;;1510459;78;2369;-57
2022/06/01 02:07:55;;;;;;;;;;;24.50;41.80;;;;;;1498499;78;1683;-57
2022/06/01 02:14:51;;;;;;;;;;;24.50;41.90;;;;;;1500100;78;1660;-56
2022/06/01 02:16:54;;;;;;;;;;;24.50;41.90;;;;;;1506933;78;1167;-57
2022/06/01 02:18:57;;;;;;;;;;;24.50;41.90;;;;;;1495850;78;1587;-55
2022/06/01 02:21:01;;;;;;;;;;;24.50;41.80;;;;;;1497443;78;1931;-58
2022/06/01 02:23:02;;;;;;;;;;;24.50;41.90;;;;;;1499734;77;690;-55
2022/06/01 02:25:05;;;;;;;;;;;24.50;41.90;;;;;;1500698;78;1176;-57
2022/06/01 02:27:07;;;;;;;;;;;24.50;41.90;;;;;;1503163;78;885;-54
2022/06/01 02:29:10;;;;;;;;;;;24.50;41.90;;;;;;1508601;77;651;-54
2022/06/01 02:31:12;;;;;;;;;;;24.50;41.80;;;;;;1491280;78;1803;-58
2022/06/01 02:33:17;;;;;;;;;;;24.50;41.80;;;;;;1500409;78;1584;-57
2022/06/01 02:35:19;;;;;;;;;;;24.50;41.70;;;;;;1505206;77;1164;-56
2022/06/01 02:37:21;;;;;;;;;;;24.50;41.60;;;;;;1513519;77;721;-57
2022/06/01 02:39:23;;;;;;;;;;;24.50;41.60;;;;;;1513297;77;735;-58
2022/06/01 02:43:50;;;;;;;;;;;24.60;41.60;;;;;;1503168;77;1630;-57
2022/06/01 02:45:52;;;;;;;;;;;24.60;41.50;;;;;;1512861;77;1603;-54
2022/06/01 02:47:54;;;;;;;;;;;24.60;41.50;;;;;;1514196;77;690;-58
2022/06/01 02:49:56;;;;;;;;;;;24.70;41.50;;;;;;1512473;77;722;-58
2022/06/01 02:51:58;;;;;;;;;;;24.70;41.40;;;;;;1502417;77;685;-58
2022/06/01 02:54:00;;;;;;;;;;;24.80;41.50;;;;;;1508030;77;679;-58
2022/06/01 02:56:02;;;;;;;;;;;24.80;41.40;;;;;;1514246;77;1142;-58
2022/06/01 02:58:04;;;;;;;;;;;24.90;41.40;;;;;;1525576;77;673;-58
2022/06/01 03:00:07;;;;;;;;;;;24.90;41.40;;;;;;1510549;77;1544;-56
2022/06/01 03:02:09;;;;;;;;;;;24.80;41.30;;;;;;1524120;77;1914;-53
2022/06/01 03:04:11;;;;;;;;;;;24.90;41.50;;;;;;1503326;77;755;-58
2022/06/01 03:06:16;;;;;;;;;;;24.90;41.50;;;;;;1509866;77;1078;-56
2022/06/01 03:08:18;;;;;;;;;;;24.90;41.50;;;;;;1507944;77;910;-56
2022/06/01 03:10:20;;;;;;;;;;;24.90;41.50;;;;;;1511936;77;774;-53
2022/06/01 03:12:22;;;;;;;;;;;24.90;41.40;;;;;;1510302;77;798;-57
2022/06/01 03:14:24;;;;;;;;;;;25.00;41.40;;;;;;1514069;77;1550;-56
2022/06/01 03:16:26;;;;;;;;;;;25.00;41.40;;;;;;1514717;77;1157;-58
2022/06/01 03:18:28;;;;;;;;;;;25.00;41.30;;;;;;1506966;77;634;-58
2022/06/01 03:20:31;;;;;;;;;;;25.00;41.30;;;;;;1506271;77;701;-58
2022/06/01 03:22:33;;;;;;;;;;;25.00;41.20;;;;;;1511069;77;1920;-57
2022/06/01 03:24:35;;;;;;;;;;;25.00;41.20;;;;;;1513263;77;682;-54
2022/06/01 03:26:37;;;;;;;;;;;25.00;41.10;;;;;;1513028;77;1189;-57
2022/06/01 03:28:39;;;;;;;;;;;25.00;41.10;;;;;;1511519;77;1591;-59
2022/06/01 03:30:43;;;;;;;;;;;25.10;41.00;;;;;;1513328;77;672;-58
2022/06/01 03:32:45;;;;;;;;;;;25.00;41.10;;;;;;1507392;77;676;-59
2022/06/01 03:34:47;;;;;;;;;;;25.00;41.00;;;;;;1511215;77;699;-58
2022/06/01 03:36:49;;;;;;;;;;;25.00;41.00;;;;;;1521443;77;1136;-58
2022/06/01 03:38:51;;;;;;;;;;;25.00;41.10;;;;;;1504882;77;704;-58
2022/06/01 03:40:52;;;;;;;;;;;25.00;41.10;;;;;;1522674;77;756;-59
2022/06/01 03:42:54;;;;;;;;;;;25.10;41.10;;;;;;1513609;77;1939;-58
2022/06/01 03:47:16;;;;;;;;;;;25.00;41.10;;;;;;1512652;77;1699;-59
2022/06/01 03:49:18;;;;;;;;;;;25.00;41.10;;;;;;1513477;77;681;-59
2022/06/01 03:51:20;;;;;;;;;;;25.00;41.10;;;;;;1513590;77;759;-58
2022/06/01 03:53:23;;;;;;;;;;;25.10;41.10;;;;;;1518983;77;744;-58
2022/06/01 03:55:26;;;;;;;;;;;25.00;41.00;;;;;;1514128;77;1149;-58
2022/06/01 03:57:28;;;;;;;;;;;25.10;41.10;;;;;;1508943;77;1590;-58
2022/06/01 03:59:30;;;;;;;;;;;25.00;41.10;;;;;;1516217;77;782;-58
2022/06/01 04:01:32;;;;;;;;;;;25.00;41.10;;;;;;1509632;77;1945;-59
2022/06/01 04:03:34;;;;;;;;;;;25.10;41.00;;;;;;1512252;77;773;-58
2022/06/01 04:05:36;;;;;;;;;;;25.00;41.00;;;;;;1512371;77;1162;-58
2022/06/01 04:07:38;;;;;;;;;;;25.00;41.10;;;;;;1513898;77;686;-58
2022/06/01 04:09:40;;;;;;;;;;;25.00;41.10;;;;;;1512829;77;695;-57
2022/06/01 04:11:42;;;;;;;;;;;25.00;41.10;;;;;;1510736;77;1768;-58
2022/06/01 04:13:43;;;;;;;;;;;25.00;41.10;;;;;;1509652;77;598;-58
2022/06/01 04:15:45;;;;;;;;;;;25.00;41.20;;;;;;1514292;77;1103;-58
2022/06/01 04:17:47;;;;;;;;;;;25.00;41.20;;;;;;1513360;77;742;-57
2022/06/01 04:19:49;;;;;;;;;;;25.00;41.30;;;;;;1508300;77;799;-58
2022/06/01 04:21:52;;;;;;;;;;;25.00;41.30;;;;;;1512470;77;1970;-59
2022/06/01 04:23:55;;;;;;;;;;;25.00;41.30;;;;;;1499327;77;676;-57
2022/06/01 04:25:57;;;;;;;;;;;25.00;41.30;;;;;;1506978;77;1924;-58
2022/06/01 04:27:59;;;;;;;;;;;24.90;41.30;;;;;;1514590;77;699;-58
2022/06/01 04:30:01;;;;;;;;;;;24.80;41.30;;;;;;1513286;77;716;-57
2022/06/01 04:32:05;;;;;;;;;;;24.80;41.30;;;;;;1514174;77;673;-56
2022/06/01 04:34:06;;;;;;;;;;;24.80;41.50;;;;;;1510266;77;1415;-57
2022/06/01 04:36:08;;;;;;;;;;;24.80;41.50;;;;;;1512198;77;1134;-58
2022/06/01 04:38:13;;;;;;;;;;;24.80;41.50;;;;;;1513210;77;745;-58
2022/06/01 04:40:15;;;;;;;;;;;24.70;41.60;;;;;;1513351;77;1698;-57
2022/06/01 04:42:16;;;;;;;;;;;24.70;41.60;;;;;;1512864;77;1929;-56
2022/06/01 04:44:19;;;;;;;;;;;24.80;41.70;;;;;;1512003;77;878;-58
2022/06/01 04:46:21;;;;;;;;;;;24.80;41.60;;;;;;1512211;77;1200;-58
2022/06/01 04:48:23;;;;;;;;;;;24.70;41.70;;;;;;1515127;77;807;-57
2022/06/01 04:50:25;;;;;;;;;;;24.70;41.70;;;;;;1514418;77;681;-58
2022/06/01 04:52:27;;;;;;;;;;;24.70;41.70;;;;;;1511979;77;1309;-58
2022/06/01 04:54:29;;;;;;;;;;;24.70;41.60;;;;;;1513295;77;945;-58
2022/06/01 04:56:31;;;;;;;;;;;24.70;42.60;;;;;;1513255;77;1142;-56
2022/06/01 04:58:33;;;;;;;;;;;24.70;42.30;;;;;;1516230;77;818;-57
2022/06/01 05:00:34;;;;;;;;;;;24.80;42.10;;;;;;1513143;77;668;-60
2022/06/01 05:02:36;;;;;;;;;;;24.90;41.80;;;;;;1513207;77;1960;-58
2022/06/01 05:04:40;;;;;;;;;;;24.90;41.50;;;;;;1513061;77;697;-55
2022/06/01 05:06:42;;;;;;;;;;;24.80;41.50;;;;;;1512079;77;1513;-56
2022/06/01 05:08:44;;;;;;;;;;;24.90;41.50;;;;;;1512393;77;833;-56
2022/06/01 05:10:46;;;;;;;;;;;24.80;41.40;;;;;;1517509;77;653;-54
2022/06/01 05:12:48;;;;;;;;;;;24.80;41.50;;;;;;1511905;77;679;-57
2022/06/01 05:14:49;;;;;;;;;;;24.80;41.40;;;;;;1513684;77;755;-57
2022/06/01 05:16:52;;;;;;;;;;;24.80;41.40;;;;;;1517292;77;1084;-53
2022/06/01 05:18:53;;;;;;;;;;;24.80;41.40;;;;;;1517501;77;713;-57
2022/06/01 05:20:55;;;;;;;;;;;24.80;41.20;;;;;;1510114;77;1530;-57
2022/06/01 05:22:57;;;;;;;;;;;24.70;41.30;;;;;;1519384;77;1941;-57
2022/06/01 05:24:59;;;;;;;;;;;24.70;41.30;;;;;;1511956;77;952;-55
2022/06/01 05:27:01;;;;;;;;;;;24.80;41.50;;;;;;1524454;75;1160;-55
2022/06/01 05:29:03;;;;;;;;;;;24.60;42.10;;;;;;1512011;77;681;-57
2022/06/01 05:31:06;;;;;;;;;;;24.60;42.20;;;;;;1512984;77;722;-58
2022/06/01 05:33:08;;;;;;;;;;;24.60;42.50;;;;;;1510165;77;1805;-58
2022/06/01 05:35:10;;;;;;;;;;;24.70;42.30;;;;;;1512007;77;1555;-58
2022/06/01 05:37:12;;;;;;;;;;;24.80;42.10;;;;;;1512755;77;816;-56
2022/06/01 05:39:14;;;;;;;;;;;24.80;42.00;;;;;;1513114;77;705;-54
2022/06/01 05:41:16;;;;;;;;;;;24.80;41.90;;;;;;1513664;77;752;-59
2022/06/01 05:43:18;;;;;;;;;;;24.80;42.00;;;;;;1511086;77;1921;-57
2022/06/01 05:45:19;;;;;;;;;;;24.70;42.10;;;;;;1513326;77;1110;-59
2022/06/01 05:47:21;;;;;;;;;;;24.70;42.10;;;;;;1515375;77;726;-60
2022/06/01 05:49:23;;;;;;;;;;;24.70;42.10;;;;;;1509122;77;1317;-59
2022/06/01 05:51:25;;;;;;;;;;;24.80;42.00;;;;;;1512685;77;892;-60
2022/06/01 05:53:27;;;;;;;;;;;24.80;42.00;;;;;;1513451;77;637;-60
2022/06/01 05:55:29;;;;;;;;;;;24.80;42.10;;;;;;1512287;77;1165;-58
2022/06/01 05:57:31;;;;;;;;;;;24.80;42.00;;;;;;1512227;77;655;-58
2022/06/01 05:59:33;;;;;;;;;;;24.80;42.00;;;;;;1514290;77;662;-59
2022/06/01 06:01:35;;;;;;;;;;;24.80;42.00;;;;;;1512226;77;660;-60
2022/06/01 06:03:37;;;;;;;;;;;24.80;42.00;;;;;;1512669;77;1954;-58
2022/06/01 06:07:59;;;;;;;;;;;24.80;41.90;;;;;;1513528;77;1676;-58
2022/06/01 06:10:01;;;;;;;;;;;25.00;41.80;;;;;;1518258;77;714;-58
2022/06/01 06:12:03;;;;;;;;;;;25.00;41.70;;;;;;1512993;77;709;-59
2022/06/01 06:14:05;;;;;;;;;;;25.10;41.60;;;;;;1514858;77;669;-58
2022/06/01 06:16:08;;;;;;;;;;;25.10;41.40;;;;;;1514632;77;1142;-58
2022/06/01 06:18:13;;;;;;;;;;;25.20;41.30;;;;;;1513360;77;1509;-60
2022/06/01 06:20:15;;;;;;;;;;;25.30;41.10;;;;;;1505891;77;755;-59
2022/06/01 06:22:17;;;;;;;;;;;25.30;40.90;;;;;;1512802;77;1937;-58
2022/06/01 06:24:19;;;;;;;;;;;25.40;40.80;;;;;;1508906;77;703;-59
2022/06/01 06:26:21;;;;;;;;;;;25.50;40.70;;;;;;1513365;77;1107;-59
2022/06/01 06:28:23;;;;;;;;;;;25.50;40.60;;;;;;1516702;77;736;-58
2022/06/01 06:30:25;;;;;;;;;;;25.50;40.50;;;;;;1518271;77;676;-58
2022/06/01 06:32:28;;;;;;;;;;;25.60;40.30;;;;;;1504088;77;1364;-58
2022/06/01 06:34:30;;;;;;;;;;;25.60;40.30;;;;;;1548042;72;228386;-72
2022/06/01 06:36:32;;;;;;;;;;;25.60;40.10;;;;;;1598107;73;631;-70
2022/06/01 06:38:35;;;;;;;;;;;25.70;40.00;;;;;;1589745;73;674;-72
2022/06/01 06:40:37;;;;;;;;;;;25.70;39.90;;;;;;1582767;74;737;-71
2022/06/01 06:42:39;;;;;;;;;;;25.80;39.90;;;;;;1592977;73;1937;-71
2022/06/01 06:44:41;;;;;;;;;;;25.80;39.80;;;;;;1572694;74;1128;-70
2022/06/01 06:46:44;;;;;;;;;;;25.80;39.70;;;;;;1560933;75;1619;-70
2022/06/01 06:48:48;;;;;;;;;;;25.80;39.60;;;;;;1551358;75;711;-71
2022/06/01 06:50:50;;;;;;;;;;;25.90;39.50;;;;;;1549674;75;1530;-71
2022/06/01 06:52:51;;;;;;;;;;;25.90;39.40;;;;;;1555076;75;706;-71
2022/06/01 06:54:53;;;;;;;;;;;25.90;39.40;;;;;;1558576;75;1106;-70
2022/06/01 06:56:55;;;;;;;;;;;25.90;39.30;;;;;;1539583;75;661;-72
2022/06/01 06:58:57;;;;;;;;;;;25.90;39.20;;;;;;1561427;75;1434;-70
2022/06/01 07:00:59;;;;;;;;;;;26.00;39.70;;;;;;1549474;75;670;-71
2022/06/01 07:03:01;;;;;;;;;;;26.00;39.70;;;;;;1567294;75;1923;-71
2022/06/01 07:05:03;;;;;;;;;;;26.00;39.60;;;;;;1555154;75;1105;-70
2022/06/01 07:07:05;;;;;;;;;;;26.00;39.40;;;;;;1563415;75;748;-71
2022/06/01 07:09:07;;;;;;;;;;;26.00;39.40;;;;;;1551816;75;717;-71
2022/06/01 07:11:09;;;;;;;;;;;26.00;39.40;;;;;;1555062;75;597;-71
2022/06/01 07:13:11;;;;;;;;;;;26.00;39.40;;;;;;1561000;75;1470;-72
2022/06/01 07:15:13;;;;;;;;;;;26.00;39.20;;;;;;1554176;75;1217;-71
2022/06/01 07:17:14;;;;;;;;;;;26.10;39.30;;;;;;1552216;75;700;-71
2022/06/01 07:19:16;;;;;;;;;;;26.10;39.10;;;;;;1546868;75;658;-71
2022/06/01 07:21:18;;;;;;;;;;;26.00;39.20;;;;;;1550015;75;629;-72
2022/06/01 07:23:20;;;;;;;;;;;26.00;39.30;;;;;;1543999;75;1938;-70
2022/06/01 07:25:22;;;;;;;;;;;26.10;39.20;;;;;;1555716;74;1128;-71
2022/06/01 07:27:24;;;;;;;;;;;26.10;39.10;;;;;;1553934;75;1375;-71
2022/06/01 07:29:26;;;;;;;;;;;26.10;39.00;;;;;;1551554;75;633;-71
2022/06/01 07:31:28;;;;;;;;;;;26.10;38.90;;;;;;1544330;75;680;-70
2022/06/01 07:33:30;;;;;;;;;;;26.10;38.90;;;;;;1564610;74;1171;-72
2022/06/01 07:35:32;;;;;;;;;;;26.10;39.00;;;;;;1566557;75;801;-72
2022/06/01 07:44:33;;;;;;;;;;;26.20;38.70;;;;;;1554871;75;1906;-71
2022/06/01 07:46:35;;;;;;;;;;;26.10;38.70;;;;;;1545876;75;566;-71
2022/06/01 07:48:38;;;;;;;;;;;26.10;38.80;;;;;;1562132;75;658;-70
2022/06/01 07:50:40;;;;;;;;;;;26.20;38.70;;;;;;1549770;75;708;-71
2022/06/01 07:52:42;;;;;;;;;;;26.20;38.70;;;;;;1546368;75;661;-71
2022/06/01 07:54:44;;;;;;;;;;;26.20;38.60;;;;;;1548285;75;1184;-68
2022/06/01 07:56:45;;;;;;;;;;;26.20;38.60;;;;;;1552683;75;1544;-70
2022/06/01 07:58:47;;;;;;;;;;;26.10;38.60;;;;;;1549563;75;662;-70
2022/06/01 08:00:49;;;;;;;;;;;26.10;38.60;;;;;;1542545;75;708;-70
2022/06/01 08:02:51;;;;;;;;;;;26.20;38.60;;;;;;1564050;75;1910;-70
2022/06/01 08:04:53;;;;;;;;;;;26.20;38.50;;;;;;1544757;75;1117;-70
2022/06/01 08:06:55;;;;;;;;;;;26.20;38.40;;;;;;1562654;75;678;-69
2022/06/01 08:08:57;;;;;;;;;;;26.10;38.60;;;;;;1546775;75;697;-72
2022/06/01 08:10:59;;;;;;;;;;;26.00;38.50;;;;;;1564988;75;1559;-70
2022/06/01 08:13:07;;;;;;;;;;;26.10;38.90;;;;;;1545360;75;784;-69
2022/06/01 08:15:09;;;;;;;;;;;26.20;38.70;;;;;;1558247;75;1127;-73
2022/06/01 08:17:11;;;;;;;;;;;26.20;38.50;;;;;;1555794;75;705;-70
2022/06/01 08:19:13;;;;;;;;;;;26.20;37.70;;;;;;1568714;75;799;-69
2022/06/01 08:21:15;;;;;;;;;;;26.10;38.40;;;;;;1561715;75;671;-69
2022/06/01 08:23:17;;;;;;;;;;;26.20;38.40;;;;;;1550547;75;1943;-68
2022/06/01 08:25:19;;;;;;;;;;;26.10;38.30;;;;;;1545730;75;1063;-71
2022/06/01 08:27:20;;;;;;;;;;;26.20;38.10;;;;;;1553665;75;587;-68
2022/06/01 08:29:22;;;;;;;;;;;26.10;38.30;;;;;;1548526;75;629;-69
2022/06/01 08:31:27;;;;;;;;;;;26.00;38.30;;;;;;1551340;75;666;-68
2022/06/01 08:33:28;;;;;;;;;;;26.00;38.40;;;;;;1557725;74;1537;-70
2022/06/01 08:35:31;;;;;;;;;;;26.00;38.40;;;;;;1554488;75;823;-71
2022/06/01 08:37:33;;;;;;;;;;;26.10;38.30;;;;;;1550115;75;1454;-70
2022/06/01 08:39:35;;;;;;;;;;;26.00;38.30;;;;;;1554131;75;720;-69
2022/06/01 08:41:37;;;;;;;;;;;26.10;38.10;;;;;;1562728;75;660;-67
2022/06/01 08:43:43;;;;;;;;;;;26.00;38.10;;;;;;1553094;75;1938;-70
2022/06/01 08:45:46;;;;;;;;;;;26.10;38.10;;;;;;1537693;75;674;-69
2022/06/01 08:47:48;;;;;;;;;;;26.00;38.10;;;;;;1570339;75;674;-69
2022/06/01 08:49:50;;;;;;;;;;;26.00;38.10;;;;;;1550948;75;757;-70
2022/06/01 08:51:52;;;;;;;;;;;26.10;38.10;;;;;;1560379;75;1591;-70
2022/06/01 08:53:54;;;;;;;;;;;26.10;37.80;;;;;;1551647;75;1118;-70
2022/06/01 08:55:57;;;;;;;;;;;26.10;37.80;;;;;;1544829;75;701;-69
2022/06/01 08:58:01;;;;;;;;;;;26.00;37.70;;;;;;1552272;75;681;-69
2022/06/01 09:00:05;;;;;;;;;;;26.10;37.60;;;;;;1547088;75;1585;-73
2022/06/01 09:02:17;;;;;;;;;;;25.90;37.20;;;;;;1552333;75;1202;-74
2022/06/01 09:04:39;;;;;;;;;;;25.90;37.10;;;;;;1550570;75;1917;-69
2022/06/01 09:06:42;;;;;;;;;;;25.90;36.90;;;;;;1554721;75;1348;-71
2022/06/01 09:08:48;;;;;;;;;;;25.90;37.10;;;;;;1547906;75;767;-69
2022/06/01 09:10:55;;;;;;;;;;;26.00;37.70;;;;;;1547919;75;773;-70
2022/06/01 09:12:58;;;;;;;;;;;25.90;37.10;;;;;;1554055;75;716;-71
2022/06/01 09:15:02;;;;;;;;;;;25.90;37.20;;;;;;1547499;74;1123;-71
2022/06/01 09:17:05;;;;;;;;;;;25.90;37.00;;;;;;1543052;75;633;-71
2022/06/01 09:19:11;;;;;;;;;;;26.00;37.60;;;;;;1545761;75;656;-71
2022/06/01 09:23:40;;;;;;;;;;;25.90;37.10;;;;;;1538627;75;1917;-71
2022/06/01 09:25:50;;;;;;;;;;;25.90;36.90;;;;;;1550760;75;660;-69
2022/06/01 09:27:53;;;;;;;;;;;25.90;36.90;;;;;;1533292;75;1480;-70
2022/06/01 09:29:55;;;;;;;;;;;25.90;36.90;;;;;;1540000;75;663;-70
2022/06/01 09:31:59;;;;;;;;;;;25.90;36.90;;;;;;1551128;75;677;-71
2022/06/01 09:34:08;;;;;;;;;;;25.90;36.80;;;;;;1550454;75;1500;-70
2022/06/01 09:36:12;;;;;;;;;;;25.90;36.70;;;;;;1515255;76;934;-72
2022/06/01 09:38:20;;;;;;;;;;;25.80;36.80;;;;;;1541917;75;672;-70
2022/06/01 09:40:27;;;;;;;;;;;25.80;36.70;;;;;;1551187;75;688;-72
2022/06/01 09:42:36;;;;;;;;;;;25.80;36.40;;;;;;1545006;75;682;-69
2022/06/01 09:44:40;;;;;;;;;;;25.80;36.40;;;;;;1556305;75;1930;-69
2022/06/01 09:46:43;;;;;;;;;;;25.80;36.40;;;;;;1531779;76;1109;-70
2022/06/01 09:48:46;;;;;;;;;;;25.80;36.50;;;;;;1551364;75;1535;-70
2022/06/01 09:50:48;;;;;;;;;;;25.70;36.30;;;;;;1541307;75;691;-71
2022/06/01 09:52:49;;;;;;;;;;;25.70;36.20;;;;;;1547507;76;1264;-72
2022/06/01 09:54:52;;;;;;;;;;;25.60;36.30;;;;;;1554737;75;1147;-70
2022/06/01 09:56:55;;;;;;;;;;;25.60;36.40;;;;;;1560665;75;775;-70
2022/06/01 10:06:15;;;;;;;;;;;25.50;36.30;;;;;;1555634;75;1662;-69
2022/06/01 10:08:21;;;;;;;;;;;25.40;36.30;;;;;;1547456;75;1694;-70
2022/06/01 10:10:24;;;;;;;;;;;25.40;36.50;;;;;;1555480;75;722;-70
2022/06/01 10:12:33;;;;;;;;;;;25.40;36.50;;;;;;1554546;75;665;-70
2022/06/01 10:14:37;;;;;;;;;;;25.30;36.40;;;;;;1574424;74;1451;-70
2022/06/01 10:16:41;;;;;;;;;;;25.30;36.50;;;;;;1558338;75;1583;-70
2022/06/01 10:18:43;;;;;;;;;;;25.30;36.60;;;;;;1557371;75;1111;-71
2022/06/01 10:20:46;;;;;;;;;;;25.30;36.30;;;;;;1538479;75;670;-69
2022/06/01 10:23:07;;;;;;;;;;;25.30;36.30;;;;;;1545963;75;684;-70
2022/06/01 10:25:29;;;;;;;;;;;25.30;36.30;;;;;;1554561;75;1952;-70
2022/06/01 10:27:32;;;;;;;;;;;25.20;36.50;;;;;;1545850;75;690;-70
2022/06/01 10:29:35;;;;;;;;;;;25.10;36.30;;;;;;1567924;75;706;-72
2022/06/01 10:31:42;;;;;;;;;;;25.20;36.40;;;;;;1543050;75;1493;-69
2022/06/01 10:33:45;;;;;;;;;;;25.10;36.50;;;;;;1547846;75;1230;-70
2022/06/01 10:35:47;;;;;;;;;;;25.10;36.50;;;;;;1551127;75;649;-71
2022/06/01 10:37:51;;;;;;;;;;;25.10;36.50;;;;;;1575752;75;607;-68
2022/06/01 10:40:01;;;;;;;;;;;25.10;36.60;;;;;;1564786;75;675;-73
2022/06/01 10:42:07;;;;;;;;;;;25.10;36.50;;;;;;1547851;75;996;-69
2022/06/01 10:44:20;;;;;;;;;;;25.10;36.40;;;;;;1552849;75;1947;-69
2022/06/01 10:46:23;;;;;;;;;;;25.10;36.50;;;;;;1553739;75;678;-70
2022/06/01 10:48:33;;;;;;;;;;;25.10;36.70;;;;;;1545205;75;1943;-69
2022/06/01 10:50:38;;;;;;;;;;;25.20;36.70;;;;;;1554403;75;664;-71
2022/06/01 10:52:44;;;;;;;;;;;25.10;36.70;;;;;;1543794;75;753;-76
2022/06/01 10:54:48;;;;;;;;;;;25.20;36.70;;;;;;1541708;75;1161;-71
2022/06/01 10:56:50;;;;;;;;;;;25.10;36.30;;;;;;1538929;75;685;-72
2022/06/01 10:58:52;;;;;;;;;;;25.10;35.80;;;;;;1559488;75;1470;-73
2022/06/01 11:01:02;;;;;;;;;;;25.20;35.50;;;;;;1564273;75;700;-71
2022/06/01 11:03:12;;;;;;;;;;;25.00;35.70;;;;;;1567254;75;1570;-71
2022/06/01 11:05:25;;;;;;;;;;;25.10;35.90;;;;;;1549017;75;1936;-72
2022/06/01 11:07:46;;;;;;;;;;;25.10;35.30;;;;;;1555345;75;781;-69
2022/06/01 11:09:58;;;;;;;;;;;25.00;34.40;;;;;;1548091;75;693;-73
2022/06/01 11:12:13;;;;;;;;;;;25.00;35.30;;;;;;1545792;75;1141;-71
2022/06/01 11:14:20;;;;;;;;;;;24.90;35.30;;;;;;1548169;75;1090;-70
2022/06/01 11:16:26;;;;;;;;;;;25.00;35.20;;;;;;1539986;75;670;-71
2022/06/01 11:18:33;;;;;;;;;;;24.90;34.20;;;;;;1549157;75;748;-71
2022/06/01 11:20:51;;;;;;;;;;;24.90;35.40;;;;;;1557020;75;784;-72
2022/06/01 11:23:07;;;;;;;;;;;24.90;35.50;;;;;;1554228;75;1037;-70
2022/06/01 11:25:13;;;;;;;;;;;24.90;35.30;;;;;;1510024;75;1949;-71
2022/06/01 11:27:17;;;;;;;;;;;25.00;35.20;;;;;;1554007;75;1529;-73
2022/06/01 11:29:20;;;;;;;;;;;24.80;34.90;;;;;;1559780;75;879;-72
2022/06/01 11:31:23;;;;;;;;;;;24.80;35.10;;;;;;1552880;75;822;-71
2022/06/01 11:33:30;;;;;;;;;;;24.80;34.70;;;;;;1552475;74;1107;-71
2022/06/01 11:35:36;;;;;;;;;;;24.80;35.10;;;;;;1551903;75;670;-71
2022/06/01 11:37:44;;;;;;;;;;;24.80;35.00;;;;;;1549393;75;829;-70
2022/06/01 11:39:48;;;;;;;;;;;24.80;34.30;;;;;;1546503;75;772;-71
2022/06/01 11:42:08;;;;;;;;;;;24.80;35.20;;;;;;1557616;75;1410;-72
2022/06/01 11:44:13;;;;;;;;;;;24.80;35.10;;;;;;1542494;75;1934;-73
2022/06/01 11:46:16;;;;;;;;;;;24.70;35.00;;;;;;1542427;75;1146;-70
2022/06/01 11:48:19;;;;;;;;;;;24.80;34.90;;;;;;1546146;75;690;-71
2022/06/01 11:50:25;;;;;;;;;;;24.80;34.90;;;;;;1540314;75;736;-71
2022/06/01 11:52:29;;;;;;;;;;;24.80;34.20;;;;;;1538754;75;689;-71
2022/06/01 11:54:34;;;;;;;;;;;24.80;34.10;;;;;;1546431;74;1608;-72
2022/06/01 11:56:38;;;;;;;;;;;24.80;34.50;;;;;;1554550;75;670;-71
2022/06/01 11:58:41;;;;;;;;;;;24.70;34.40;;;;;;1546405;75;699;-71
2022/06/01 12:00:52;;;;;;;;;;;24.70;34.70;;;;;;1543079;75;661;-71
2022/06/01 12:02:54;;;;;;;;;;;24.70;33.20;;;;;;1544839;75;626;-71
2022/06/01 12:04:58;;;;;;;;;;;24.70;34.30;;;;;;1565720;75;1953;-74
2022/06/01 12:07:18;;;;;;;;;;;24.60;34.20;;;;;;1563328;75;667;-71
2022/06/01 12:09:22;;;;;;;;;;;24.60;34.30;;;;;;1555949;75;1526;-71
2022/06/01 12:11:42;;;;;;;;;;;24.70;34.60;;;;;;1568904;74;1014;-71
2022/06/01 12:13:46;;;;;;;;;;;24.60;34.50;;;;;;1552750;75;1151;-71
2022/06/01 12:16:07;;;;;;;;;;;24.60;34.40;;;;;;1545779;75;710;-69
2022/06/01 12:18:17;;;;;;;;;;;24.60;34.40;;;;;;1556753;75;779;-71
2022/06/01 12:20:20;;;;;;;;;;;24.60;34.40;;;;;;1563116;75;695;-70
2022/06/01 12:29:32;;;;;;;;;;;24.60;34.30;;;;;;1560358;75;1654;-70
2022/06/01 12:31:54;;;;;;;;;;;24.70;34.50;;;;;;1542404;75;648;-72
2022/06/01 12:34:16;;;;;;;;;;;24.60;34.40;;;;;;1512926;76;225371;-69
2022/06/01 12:36:18;;;;;;;;;;;24.60;34.40;;;;;;1518202;77;1098;-68
2022/06/01 12:38:33;;;;;;;;;;;24.50;33.90;;;;;;1509885;77;1638;-68
2022/06/01 12:40:34;;;;;;;;;;;24.60;34.40;;;;;;1530283;76;1786;-68
2022/06/01 12:42:43;;;;;;;;;;;24.60;34.40;;;;;;1534271;76;724;-68
2022/06/01 12:44:46;;;;;;;;;;;24.60;34.40;;;;;;1525208;76;1952;-68
2022/06/01 12:46:51;;;;;;;;;;;24.60;34.40;;;;;;1528414;76;733;-67
2022/06/01 12:48:52;;;;;;;;;;;24.60;34.40;;;;;;1516539;76;1634;-68
2022/06/01 12:50:55;;;;;;;;;;;24.50;34.40;;;;;;1512637;77;1594;-68
2022/06/01 12:53:11;;;;;;;;;;;24.50;34.10;;;;;;1506917;77;653;-66
2022/06/01 12:55:20;;;;;;;;;;;24.50;34.30;;;;;;1511706;77;1181;-65